Time;durP1;ratioP1;P1;durP2;ratioP2;P2;SDS_P1;SDS_P2;PMS_P1;PMS_P2;Temp;Humidity;BMP_temperature;BMP_pressure;BME280_temperature;BME280_humidity;BME280_pressure;Samples;Min_cycle;Max_cycle;Signal;HPM_P1;HPM_P2
2024/02/26 00:01:15;;;;;;;;;10.25;8.50;;;;;4.43;84.50;99602.12;114605;241;39179;-53
2024/02/26 00:04:02;;;;;;;;;11.00;9.50;;;;;4.41;84.58;99600.13;114618;241;39459;-53
2024/02/26 00:06:36;;;;;;;;;12.00;9.00;;;;;4.40;84.64;99599.30;114582;240;39264;-55
2024/02/26 00:09:10;;;;;;;;;14.00;11.00;;;;;4.43;84.79;99599.72;114618;240;40379;-53
2024/02/26 00:11:44;;;;;;;;;25.25;20.00;;;;;4.43;84.73;99598.61;114439;240;161056;-54
2024/02/26 00:14:18;;;;;;;;;19.00;13.00;;;;;4.37;84.93;99595.79;114556;241;39033;-53
2024/02/26 00:16:51;;;;;;;;;15.00;12.00;;;;;4.28;85.02;99595.47;114428;239;160613;-53
2024/02/26 00:19:25;;;;;;;;;16.00;12.75;;;;;4.18;85.01;99589.83;114564;241;41173;-51
2024/02/26 00:21:59;;;;;;;;;12.50;9.00;;;;;4.08;85.08;99587.86;114547;241;40553;-50
2024/02/26 00:24:33;;;;;;;;;10.75;6.00;;;;;3.96;85.33;99583.89;114571;240;40788;-50
2024/02/26 00:27:07;;;;;;;;;9.25;8.00;;;;;3.85;85.43;99584.86;114560;240;39966;-50
2024/02/26 00:29:41;;;;;;;;;13.25;10.00;;;;;3.71;85.49;99579.70;114410;240;161080;-49
2024/02/26 00:32:15;;;;;;;;;11.33;9.00;;;;;3.62;85.67;99574.95;114592;241;39742;-50
2024/02/26 00:34:50;;;;;;;;;13.00;9.00;;;;;3.61;85.85;99573.02;114361;240;161143;-52
2024/02/26 00:37:24;;;;;;;;;10.00;8.25;;;;;3.59;85.87;99575.52;114538;240;41069;-52
2024/02/26 00:39:58;;;;;;;;;9.50;8.00;;;;;3.52;86.20;99571.04;114598;240;40077;-53
2024/02/26 00:42:31;;;;;;;;;15.50;12.00;;;;;3.44;86.27;99571.02;114416;239;198930;-53
2024/02/26 00:45:06;;;;;;;;;12.00;9.00;;;;;3.39;86.31;99569.67;114577;241;40710;-52
2024/02/26 00:47:41;;;;;;;;;12.50;11.00;;;;;3.35;86.61;99570.80;114430;239;161246;-52
2024/02/26 00:50:15;;;;;;;;;15.33;12.33;;;;;3.35;86.87;99572.73;114609;240;40541;-51
2024/02/26 00:52:48;;;;;;;;;12.00;10.00;;;;;3.34;86.87;99575.04;114468;239;161787;-49
2024/02/26 00:55:22;;;;;;;;;13.50;10.00;;;;;3.38;86.94;99573.68;114571;240;40557;-53
2024/02/26 00:57:56;;;;;;;;;11.00;9.00;;;;;3.41;87.17;99577.55;114592;240;41222;-52
2024/02/26 01:00:30;;;;;;;;;12.25;9.75;;;;;3.43;87.38;99568.45;114411;239;161112;-50
2024/02/26 01:03:04;;;;;;;;;11.33;9.00;;;;;3.42;87.43;99569.27;114607;240;40753;-51
2024/02/26 01:05:38;;;;;;;;;14.33;10.67;;;;;3.41;87.41;99568.71;114445;239;161085;-48
2024/02/26 01:08:12;;;;;;;;;11.25;9.50;;;;;3.38;87.51;99573.64;114574;241;39511;-50
2024/02/26 01:10:46;;;;;;;;;11.33;8.33;;;;;3.36;87.57;99574.54;114437;239;161324;-50
2024/02/26 01:13:20;;;;;;;;;14.25;11.50;;;;;3.37;87.66;99576.95;114544;241;39269;-50
2024/02/26 01:15:54;;;;;;;;;14.00;11.00;;;;;3.41;87.82;99579.42;114598;241;39650;-50
2024/02/26 01:18:28;;;;;;;;;14.00;12.00;;;;;3.39;87.77;99576.35;114424;239;161631;-49
2024/02/26 01:21:01;;;;;;;;;12.00;10.00;;;;;3.36;88.11;99574.91;114570;240;40846;-52
2024/02/26 01:23:35;;;;;;;;;22.00;16.00;;;;;3.42;88.38;99577.25;114421;239;160708;-53
2024/02/26 01:26:09;;;;;;;;;15.50;11.75;;;;;3.59;89.21;99578.86;114626;240;41084;-50
2024/02/26 01:28:44;;;;;;;;;13.75;11.00;;;;;3.71;89.22;99572.15;114467;239;161611;-50
2024/02/26 01:31:17;;;;;;;;;17.67;13.00;;;;;3.83;89.69;99573.00;114565;242;39789;-53
2024/02/26 01:33:52;;;;;;;;;16.50;13.00;;;;;3.86;89.60;99566.59;114563;242;41621;-51
2024/02/26 01:36:26;;;;;;;;;18.00;14.00;;;;;3.87;89.50;99565.92;114426;239;162224;-51
2024/02/26 01:39:00;;;;;;;;;22.75;17.00;;;;;3.90;89.62;99564.28;114623;242;39823;-50
2024/02/26 01:41:34;;;;;;;;;19.33;15.00;;;;;3.92;89.83;99568.77;114466;239;161619;-49
2024/02/26 01:44:08;;;;;;;;;20.00;15.00;;;;;4.01;90.03;99565.08;114579;242;40014;-51
2024/02/26 01:46:42;;;;;;;;;19.50;13.25;;;;;4.04;90.03;99569.12;114469;239;161749;-51
2024/02/26 01:49:17;;;;;;;;;16.00;13.00;;;;;4.12;90.27;99570.78;114596;241;39983;-52
2024/02/26 01:51:51;;;;;;;;;20.67;15.00;;;;;4.21;90.27;99574.55;114591;242;39722;-52
2024/02/26 01:54:25;;;;;;;;;20.00;16.00;;;;;4.33;90.71;99570.27;114422;239;161429;-51
2024/02/26 01:57:00;;;;;;;;;20.25;16.00;;;;;4.41;90.56;99572.62;114608;241;40002;-50
2024/02/26 01:59:35;;;;;;;;;25.50;18.75;;;;;4.43;90.45;99573.68;114396;238;161513;-53
2024/02/26 02:02:12;;;;;;;;;24.00;16.00;;;;;4.49;90.65;99575.27;114548;241;41047;-54
2024/02/26 02:04:46;;;;;;;;;20.75;15.75;;;;;4.51;90.67;99573.13;114438;238;161772;-52
2024/02/26 02:07:21;;;;;;;;;19.75;15.75;;;;;4.52;90.74;99573.02;114550;241;39610;-53
2024/02/26 02:09:55;;;;;;;;;20.75;15.00;;;;;4.49;90.65;99568.02;114542;241;39409;-52
2024/02/26 02:12:29;;;;;;;;;20.75;13.75;;;;;4.45;90.62;99566.86;114410;238;161851;-52
2024/02/26 02:15:03;;;;;;;;;20.50;14.00;;;;;4.38;90.47;99568.34;114595;241;39870;-53
2024/02/26 02:17:37;;;;;;;;;18.00;14.00;;;;;4.28;90.29;99573.81;114400;238;161716;-54
2024/02/26 02:20:18;;;;;;;;;20.00;16.00;;;;;4.15;89.95;99576.60;114539;241;39304;-51
2024/02/26 02:22:52;;;;;;;;;21.00;17.75;;;;;4.05;89.88;99576.44;114449;238;161419;-51
2024/02/26 02:25:26;;;;;;;;;15.00;11.00;;;;;3.97;89.81;99576.23;114578;241;38856;-50
2024/02/26 02:28:01;;;;;;;;;26.75;19.00;;;;;3.95;89.77;99576.67;114600;241;40719;-50
2024/02/26 02:30:36;;;;;;;;;19.25;15.00;;;;;3.82;89.77;99574.40;114578;240;40389;-50
2024/02/26 02:33:11;;;;;;;;;28.75;20.50;;;;;3.67;89.75;99576.86;114600;240;40804;-51
2024/02/26 02:35:45;;;;;;;;;23.00;18.00;;;;;3.55;89.76;99576.11;114432;238;161023;-53
2024/02/26 02:38:19;;;;;;;;;22.00;17.00;;;;;3.45;89.78;99578.58;114587;240;39757;-52
2024/02/26 02:40:53;;;;;;;;;15.00;12.00;;;;;3.34;89.82;99577.31;114447;239;161468;-53
2024/02/26 02:43:27;;;;;;;;;16.00;13.50;;;;;3.30;89.84;99579.73;114562;241;39414;-53
2024/02/26 02:46:02;;;;;;;;;22.00;15.00;;;;;3.24;90.17;99580.17;114519;241;39701;-52
2024/02/26 02:48:36;;;;;;;;;12.50;10.25;;;;;3.18;90.18;99579.56;114529;241;39378;-52
2024/02/26 02:51:10;;;;;;;;;11.00;10.00;;;;;3.15;90.10;99576.15;114584;241;39590;-50
2024/02/26 02:53:44;;;;;;;;;16.75;13.75;;;;;3.08;90.01;99577.30;114425;239;161654;-50
2024/02/26 02:56:18;;;;;;;;;17.50;13.75;;;;;3.02;90.25;99577.21;114572;241;40271;-49
2024/02/26 02:58:52;;;;;;;;;18.00;14.00;;;;;3.00;90.25;99584.84;114417;239;161596;-51
2024/02/26 03:01:26;;;;;;;;;19.00;14.00;;;;;2.95;90.21;99590.72;114559;241;40061;-50
2024/02/26 03:04:00;;;;;;;;;15.50;12.75;;;;;2.90;90.46;99591.41;114580;241;39911;-52
2024/02/26 03:06:34;;;;;;;;;15.50;11.50;;;;;2.84;90.40;99591.64;114401;239;161221;-53
2024/02/26 03:09:07;;;;;;;;;17.00;12.00;;;;;2.75;90.45;99596.71;114608;241;39495;-51
2024/02/26 03:11:41;;;;;;;;;15.50;12.00;;;;;2.76;90.50;99600.41;114439;238;161459;-50
2024/02/26 03:14:15;;;;;;;;;24.00;16.00;;;;;2.80;90.69;99597.96;114578;240;41209;-49
2024/02/26 03:16:49;;;;;;;;;16.00;11.00;;;;;2.72;90.72;99599.22;114455;239;161730;-49
2024/02/26 03:19:23;;;;;;;;;18.00;14.00;;;;;2.70;90.54;99602.23;114569;241;40140;-53
2024/02/26 03:21:57;;;;;;;;;18.00;14.00;;;;;2.70;90.57;99606.67;114584;241;40584;-54
2024/02/26 03:24:31;;;;;;;;;19.00;14.50;;;;;2.66;90.59;99605.98;114414;239;162256;-49
2024/02/26 03:27:09;;;;;;;;;18.25;12.75;;;;;2.65;90.72;99603.45;114601;241;39630;-49
2024/02/26 03:29:43;;;;;;;;;17.00;13.00;;;;;2.67;91.15;99608.05;114435;238;162445;-50
2024/02/26 03:32:17;;;;;;;;;16.00;13.25;;;;;2.72;91.18;99604.75;114579;241;40615;-50
2024/02/26 03:34:54;;;;;;;;;15.25;12.00;;;;;2.72;91.19;99602.96;114448;239;162568;-52
2024/02/26 03:37:27;;;;;;;;;22.00;16.00;;;;;2.72;91.13;99604.02;114555;242;41561;-53
2024/02/26 03:40:01;;;;;;;;;14.25;12.00;;;;;2.64;91.06;99607.64;114591;242;39505;-50
2024/02/26 03:42:35;;;;;;;;;16.67;13.00;;;;;2.60;91.17;99607.25;114523;239;40751;-50
2024/02/26 03:45:11;;;;;;;;;17.00;14.00;;;;;2.59;91.06;99603.02;114580;241;40357;-53
2024/02/26 03:47:45;;;;;;;;;14.00;12.00;;;;;2.56;91.21;99603.53;114455;238;161301;-53
2024/02/26 03:50:19;;;;;;;;;17.33;14.00;;;;;2.57;91.26;99602.36;114634;241;39137;-50
2024/02/26 03:52:54;;;;;;;;;23.00;17.00;;;;;2.55;91.40;99607.06;114466;239;161586;-50
2024/02/26 03:55:28;;;;;;;;;18.00;14.00;;;;;2.54;91.46;99605.48;114593;241;40988;-52
2024/02/26 03:58:03;;;;;;;;;16.00;11.00;;;;;2.52;91.59;99605.20;114579;241;40037;-53
2024/02/26 04:00:38;;;;;;;;;16.00;12.00;;;;;2.53;92.04;99602.38;115082;241;41106;-49
2024/02/26 04:03:11;;;;;;;;;19.50;15.50;;;;;2.64;92.13;99607.10;114609;242;40394;-50
2024/02/26 04:05:46;;;;;;;;;18.00;14.00;;;;;2.64;91.99;99607.84;114425;242;161517;-52
2024/02/26 04:08:20;;;;;;;;;15.00;10.00;;;;;2.66;91.87;99606.77;114611;242;39459;-53
2024/02/26 04:10:54;;;;;;;;;16.00;13.00;;;;;2.64;92.13;99605.40;114452;239;161495;-52
2024/02/26 04:13:28;;;;;;;;;16.00;12.75;;;;;2.63;92.34;99609.23;113903;242;666123;-52
2024/02/26 04:16:04;;;;;;;;;19.00;13.33;;;;;2.57;92.07;99610.54;114629;242;39972;-50
2024/02/26 04:18:40;;;;;;;;;14.75;12.25;;;;;2.51;91.96;99608.30;114533;241;39101;-52
2024/02/26 04:21:14;;;;;;;;;18.75;13.50;;;;;2.48;92.17;99608.15;114526;242;40669;-50
2024/02/26 04:23:49;;;;;;;;;18.00;14.00;;;;;2.48;92.40;99609.90;114440;239;160583;-53
2024/02/26 04:26:23;;;;;;;;;22.00;16.00;;;;;2.41;92.29;99610.06;114564;242;40459;-53
2024/02/26 04:28:57;;;;;;;;;17.00;12.33;;;;;2.33;92.34;99608.02;114439;239;161046;-52
2024/02/26 04:31:32;;;;;;;;;15.00;11.00;;;;;2.39;92.45;99608.65;114567;241;40744;-53
2024/02/26 04:34:06;;;;;;;;;14.25;11.00;;;;;2.39;92.38;99610.29;114605;241;39464;-49
2024/02/26 04:36:40;;;;;;;;;12.67;10.00;;;;;2.40;92.35;99611.45;114554;240;39078;-50
2024/02/26 04:39:14;;;;;;;;;19.50;15.25;;;;;2.35;92.51;99609.60;114640;240;41136;-51
2024/02/26 04:41:48;;;;;;;;;16.50;12.75;;;;;2.34;92.51;99608.69;114463;238;161466;-50
2024/02/26 04:44:22;;;;;;;;;17.00;12.00;;;;;2.27;92.31;99607.71;114623;240;39960;-53
2024/02/26 04:46:56;;;;;;;;;14.00;11.00;;;;;2.20;92.25;99609.39;114478;239;161602;-52
2024/02/26 04:49:30;;;;;;;;;21.33;16.00;;;;;2.13;92.19;99609.09;114610;241;39912;-53
2024/02/26 04:52:04;;;;;;;;;22.00;15.75;;;;;2.06;92.21;99607.80;114611;241;40169;-52
2024/02/26 04:54:38;;;;;;;;;18.75;14.00;;;;;2.03;92.43;99607.09;114428;239;161382;-54
2024/02/26 04:57:12;;;;;;;;;20.00;15.50;;;;;2.04;92.38;99611.39;114611;241;41320;-53
2024/02/26 04:59:46;;;;;;;;;19.00;14.00;;;;;1.97;92.44;99609.08;114405;241;161363;-50
2024/02/26 05:02:20;;;;;;;;;20.00;15.25;;;;;1.91;92.60;99613.11;114551;242;40856;-51
2024/02/26 05:04:54;;;;;;;;;13.50;9.75;;;;;1.92;92.50;99610.37;114359;241;162574;-53
2024/02/26 05:07:27;;;;;;;;;17.00;13.00;;;;;1.87;92.65;99612.71;114530;242;40471;-52
2024/02/26 05:10:01;;;;;;;;;14.00;11.00;;;;;1.86;92.45;99609.65;114601;242;40049;-51
2024/02/26 05:12:35;;;;;;;;;17.00;12.33;;;;;1.82;92.42;99611.27;114376;241;161188;-50
2024/02/26 05:15:15;;;;;;;;;17.00;12.00;;;;;1.78;92.48;99609.39;114580;242;40510;-52
2024/02/26 05:17:49;;;;;;;;;23.50;14.50;;;;;1.77;92.57;99618.13;114394;241;160836;-52
2024/02/26 05:20:23;;;;;;;;;14.00;11.00;;;;;1.75;92.89;99617.65;114558;242;39736;-54
2024/02/26 05:22:58;;;;;;;;;14.00;9.75;;;;;1.77;93.00;99617.12;114460;241;161173;-53
2024/02/26 05:25:32;;;;;;;;;17.25;13.00;;;;;1.82;93.21;99620.05;114546;242;39427;-50
2024/02/26 05:28:07;;;;;;;;;17.33;13.00;;;;;1.89;93.38;99623.09;114621;242;39614;-50
2024/02/26 05:30:41;;;;;;;;;15.00;12.00;;;;;1.98;93.52;99623.48;114477;241;39539;-52
2024/02/26 05:33:15;;;;;;;;;18.25;13.25;;;;;2.08;93.83;99629.30;114602;243;40014;-52
2024/02/26 05:35:49;;;;;;;;;13.50;10.75;;;;;2.32;94.68;99627.85;114426;239;161513;-50
2024/02/26 05:38:23;;;;;;;;;15.67;13.00;;;;;2.69;95.17;99628.87;114608;242;40708;-50
2024/02/26 05:40:57;;;;;;;;;17.50;13.75;;;;;2.83;95.33;99630.41;114445;239;161826;-50
2024/02/26 05:43:31;;;;;;;;;19.75;16.50;;;;;3.04;95.74;99633.34;114551;242;41775;-50
2024/02/26 05:46:05;;;;;;;;;20.50;14.00;;;;;3.27;96.48;99634.80;114607;242;39894;-50
2024/02/26 05:48:40;;;;;;;;;19.50;13.00;;;;;3.58;96.82;99632.69;114543;241;40679;-51
2024/02/26 05:51:15;;;;;;;;;18.25;14.00;;;;;3.73;96.67;99632.85;114577;242;39403;-52
2024/02/26 05:53:53;;;;;;;;;17.50;14.00;;;;;3.85;96.74;99634.44;114405;241;161384;-50
2024/02/26 05:56:28;;;;;;;;;21.00;17.00;;;;;4.00;97.13;99637.06;114578;242;40594;-49
2024/02/26 05:59:03;;;;;;;;;22.50;14.25;;;;;4.17;97.29;99636.73;114427;239;161220;-49
2024/02/26 06:01:37;;;;;;;;;21.75;15.25;;;;;4.33;97.14;99639.27;114566;242;40054;-50
2024/02/26 06:04:12;;;;;;;;;22.00;18.00;;;;;4.41;97.08;99639.80;114580;242;39588;-50
2024/02/26 06:06:46;;;;;;;;;20.00;15.50;;;;;4.52;97.25;99642.86;114388;242;40081;-50
2024/02/26 06:09:20;;;;;;;;;24.00;17.25;;;;;4.61;97.12;99641.15;114616;242;40684;-50
2024/02/26 06:11:54;;;;;;;;;19.00;15.00;;;;;4.63;96.82;99642.35;114428;241;161803;-51
2024/02/26 06:14:28;;;;;;;;;19.00;15.25;;;;;4.68;96.61;99643.98;114586;241;40745;-50
2024/02/26 06:17:02;;;;;;;;;18.00;14.25;;;;;4.70;96.48;99645.80;114470;241;161515;-50
2024/02/26 06:19:36;;;;;;;;;22.50;18.00;;;;;4.72;96.26;99646.36;114613;241;40288;-53
2024/02/26 06:22:10;;;;;;;;;27.00;21.75;;;;;4.78;96.16;99640.34;114621;241;40057;-53
2024/02/26 06:24:44;;;;;;;;;21.00;16.00;;;;;4.87;96.39;99641.83;114560;240;39960;-50
2024/02/26 06:27:18;;;;;;;;;30.75;23.00;;;;;4.96;96.25;99639.70;114613;240;39361;-49
2024/02/26 06:29:52;;;;;;;;;24.25;17.00;;;;;5.06;96.41;99643.90;114532;239;161939;-50
2024/02/26 06:32:27;;;;;;;;;22.00;17.00;;;;;5.17;96.62;99647.14;115036;240;39165;-51
2024/02/26 06:35:01;;;;;;;;;20.25;15.25;;;;;5.48;96.92;99653.90;114745;239;162147;-51
2024/02/26 06:37:36;;;;;;;;;28.00;20.00;;;;;5.98;96.89;99653.05;114525;240;41246;-50
2024/02/26 06:40:12;;;;;;;;;24.00;18.50;;;;;6.73;97.52;99651.62;114559;240;40570;-54
2024/02/26 06:42:45;;;;;;;;;25.75;19.75;;;;;7.03;96.99;99652.48;114581;240;39022;-54
2024/02/26 06:45:20;;;;;;;;;21.25;17.00;;;;;7.35;96.36;99653.58;114723;240;39257;-53
2024/02/26 06:47:55;;;;;;;;;23.33;17.00;;;;;7.60;95.93;99655.15;114453;239;161707;-53
2024/02/26 06:50:29;;;;;;;;;31.25;23.50;;;;;7.66;95.58;99652.73;114622;240;41797;-53
2024/02/26 06:53:03;;;;;;;;;30.33;24.00;;;;;7.85;95.21;99657.78;114458;238;161134;-52
2024/02/26 06:55:39;;;;;;;;;35.00;26.00;;;;;8.24;95.16;99650.81;114586;241;40550;-52
2024/02/26 06:58:14;;;;;;;;;24.00;16.75;;;;;8.66;95.31;99655.54;114590;241;41031;-54
2024/02/26 07:00:48;;;;;;;;;29.00;20.75;;;;;8.97;94.94;99652.79;114557;240;41020;-50
2024/02/26 07:03:22;;;;;;;;;31.00;22.33;;;;;9.11;94.42;99654.75;114606;240;39627;-50
2024/02/26 07:05:56;;;;;;;;;36.33;27.00;;;;;9.10;94.15;99655.47;114492;238;161800;-50
2024/02/26 07:08:30;;;;;;;;;33.00;26.00;;;;;9.04;93.50;99657.31;114614;240;40783;-49
2024/02/26 07:11:08;;;;;;;;;36.50;25.50;;;;;9.32;93.62;99657.38;114501;238;161290;-53
2024/02/26 07:13:42;;;;;;;;;33.00;26.00;;;;;9.86;93.66;99651.71;114572;240;41034;-54
2024/02/26 07:16:16;;;;;;;;;37.25;26.75;;;;;9.97;92.70;99654.42;114569;240;41314;-50
2024/02/26 07:18:50;;;;;;;;;30.50;23.00;;;;;9.86;92.56;99658.70;114573;240;39764;-49
2024/02/26 07:21:24;;;;;;;;;33.50;24.50;;;;;10.03;93.20;99661.39;114570;240;39696;-49
2024/02/26 07:23:58;;;;;;;;;24.33;18.00;;;;;10.33;92.67;99657.24;114471;238;161993;-53
2024/02/26 07:26:32;;;;;;;;;37.00;28.00;;;;;10.85;92.96;99659.39;114577;240;39344;-52
2024/02/26 07:29:07;;;;;;;;;35.00;27.00;;;;;11.83;93.45;99659.63;114474;240;162701;-50
2024/02/26 07:31:41;;;;;;;;;34.00;26.00;;;;;13.06;92.99;99663.70;114555;241;39266;-50
2024/02/26 07:34:15;;;;;;;;;39.00;28.50;;;;;13.95;91.68;99659.27;114520;241;39537;-50
2024/02/26 07:36:49;;;;;;;;;34.33;27.67;;;;;14.32;90.29;99662.83;114514;241;40353;-50
2024/02/26 07:39:23;;;;;;;;;33.75;25.50;;;;;14.88;88.57;99661.06;114566;241;39256;-54
2024/02/26 07:41:57;;;;;;;;;36.00;27.00;;;;;15.10;86.65;99661.16;114690;238;161427;-54
2024/02/26 07:44:31;;;;;;;;;32.25;25.50;;;;;15.34;85.48;99665.64;115014;240;39164;-53
2024/02/26 07:47:06;;;;;;;;;34.00;27.00;;;;;15.50;82.97;99672.36;114756;239;161464;-54
2024/02/26 07:49:40;;;;;;;;;33.75;26.75;;;;;15.21;80.97;99672.45;114565;240;39184;-54
2024/02/26 07:52:14;;;;;;;;;30.00;24.00;;;;;14.99;80.70;99668.83;114599;240;39503;-52
2024/02/26 07:54:48;;;;;;;;;35.00;28.00;;;;;14.99;80.72;99673.19;114579;239;39586;-50
2024/02/26 07:57:22;;;;;;;;;29.00;23.00;;;;;14.96;79.79;99675.24;114622;241;41131;-50
2024/02/26 07:59:56;;;;;;;;;32.75;26.00;;;;;14.54;78.72;99679.23;114411;239;161414;-53
2024/02/26 08:02:30;;;;;;;;;31.33;23.67;;;;;14.23;77.29;99683.22;114606;241;40715;-53
2024/02/26 08:05:04;;;;;;;;;27.00;21.33;;;;;13.83;76.81;99689.66;114474;239;161840;-50
2024/02/26 08:07:38;;;;;;;;;35.25;26.75;;;;;13.68;76.72;99695.38;114555;240;39949;-50
2024/02/26 08:10:13;;;;;;;;;37.00;29.00;;;;;13.58;77.26;99695.85;114604;240;39772;-52
2024/02/26 08:12:47;;;;;;;;;37.00;28.33;;;;;14.04;78.14;99693.20;114415;238;161384;-51
2024/02/26 08:15:21;;;;;;;;;44.33;32.00;;;;;16.08;78.47;99692.33;114601;241;39968;-51
2024/02/26 08:17:55;;;;;;;;;33.25;26.00;;;;;17.88;77.41;99685.73;114386;239;161402;-51
2024/02/26 08:20:29;;;;;;;;;37.00;29.00;;;;;19.49;75.02;99682.42;114594;241;40203;-50
2024/02/26 08:23:03;;;;;;;;;34.00;28.00;;;;;20.63;72.37;99682.05;114546;238;161475;-50
2024/02/26 08:25:37;;;;;;;;;34.00;27.00;;;;;21.08;68.73;99682.33;114997;240;40543;-50
2024/02/26 08:28:13;;;;;;;;;36.00;29.00;;;;;21.22;67.49;99681.12;115029;240;40126;-50
2024/02/26 08:30:46;;;;;;;;;33.33;27.00;;;;;21.44;66.70;99678.67;114484;239;160971;-51
2024/02/26 08:33:21;;;;;;;;;30.00;25.00;;;;;21.67;64.15;99680.37;114616;240;39544;-51
2024/02/26 08:35:54;;;;;;;;;28.75;24.75;;;;;21.80;63.61;99683.20;114467;238;161465;-53
2024/02/26 08:38:28;;;;;;;;;28.50;24.00;;;;;22.10;62.93;99685.30;114560;240;39752;-52
2024/02/26 08:41:03;;;;;;;;;27.00;22.25;;;;;22.16;62.12;99684.79;114460;238;161624;-51
2024/02/26 08:43:38;;;;;;;;;30.00;25.00;;;;;21.93;61.83;99688.56;114565;240;40352;-60
2024/02/26 08:46:15;;;;;;;;;33.00;26.67;;;;;21.73;61.30;99687.23;114601;240;39595;-59
2024/02/26 08:48:49;;;;;;;;;30.50;25.50;;;;;21.79;60.84;99690.30;114546;239;39571;-62
2024/02/26 08:51:23;;;;;;;;;26.00;20.75;;;;;21.71;58.11;99690.70;114614;240;40424;-61
2024/02/26 08:53:58;;;;;;;;;29.00;25.00;;;;;21.46;57.40;99693.61;114447;239;161323;-51
2024/02/26 08:56:32;;;;;;;;;31.75;25.25;;;;;20.95;57.24;99692.02;114600;241;39446;-53
2024/02/26 08:59:06;;;;;;;;;28.00;24.50;;;;;20.31;58.68;99693.92;114481;238;163652;-50
2024/02/26 09:01:41;;;;;;;;;30.00;25.00;;;;;20.32;59.68;99689.95;114576;240;39659;-50
2024/02/26 09:04:14;;;;;;;;;30.25;25.00;;;;;20.75;59.18;99690.15;114604;240;39415;-54
2024/02/26 09:06:48;;;;;;;;;31.50;26.50;;;;;20.85;58.52;99694.33;114448;238;161276;-54
2024/02/26 09:09:24;;;;;;;;;31.33;26.67;;;;;20.68;56.85;99694.09;114578;240;41096;-54
2024/02/26 09:11:58;;;;;;;;;33.00;27.00;;;;;20.63;56.50;99693.15;114421;239;162330;-54
2024/02/26 09:14:32;;;;;;;;;32.50;28.00;;;;;20.45;56.30;99698.43;114601;241;40684;-52
2024/02/26 09:17:07;;;;;;;;;33.00;24.00;;;;;20.49;57.50;99697.19;114483;238;161444;-51
2024/02/26 09:19:42;;;;;;;;;30.00;26.00;;;;;20.83;56.38;99697.02;114582;240;40552;-53
2024/02/26 09:22:16;;;;;;;;;36.00;28.50;;;;;20.86;55.75;99700.86;114567;240;39856;-54
2024/02/26 09:24:51;;;;;;;;;33.00;28.00;;;;;20.82;56.50;99699.44;114556;240;40099;-54
2024/02/26 09:27:24;;;;;;;;;34.00;28.00;;;;;20.71;56.82;99695.20;114568;241;39368;-54
2024/02/26 09:29:58;;;;;;;;;30.00;24.00;;;;;20.90;57.37;99695.92;114473;238;161575;-51
2024/02/26 09:32:32;;;;;;;;;27.00;22.75;;;;;21.15;56.81;99696.12;114608;240;40660;-50
2024/02/26 09:35:07;;;;;;;;;31.75;26.50;;;;;21.03;53.83;99701.98;114467;239;161595;-53
2024/02/26 09:37:43;;;;;;;;;35.25;29.00;;;;;20.19;55.07;99694.98;114529;241;40269;-54
2024/02/26 09:40:17;;;;;;;;;24.33;21.00;;;;;19.78;56.58;99694.25;114514;241;40396;-50
2024/02/26 09:42:54;;;;;;;;;36.00;29.00;;;;;20.24;56.58;99688.81;114537;239;39527;-50
2024/02/26 09:45:29;;;;;;;;;37.00;29.00;;;;;20.60;55.79;99694.45;114586;240;39234;-54
2024/02/26 09:48:05;;;;;;;;;28.25;23.00;;;;;21.15;55.53;99694.63;114488;231;165218;-51
2024/02/26 09:50:40;;;;;;;;;32.75;28.00;;;;;21.34;54.73;99694.30;114619;240;39268;-54
2024/02/26 09:53:15;;;;;;;;;27.00;23.25;;;;;21.47;53.69;99698.94;114489;238;161347;-54
2024/02/26 09:55:50;;;;;;;;;29.50;25.50;;;;;21.52;53.63;99701.30;114608;241;39796;-61
2024/02/26 09:58:28;;;;;;;;;27.00;22.00;;;;;21.81;53.57;99703.77;114486;241;161589;-54
2024/02/26 10:01:08;;;;;;;;;26.50;22.00;;;;;21.89;52.77;99704.63;114583;241;40243;-54
2024/02/26 10:03:44;;;;;;;;;27.00;23.00;;;;;21.67;52.60;99712.39;114633;241;39389;-54
2024/02/26 10:06:19;;;;;;;;;28.25;24.00;;;;;21.42;52.54;99713.08;114454;238;161882;-54
2024/02/26 10:08:54;;;;;;;;;27.00;23.00;;;;;21.09;52.79;99714.56;114593;241;40062;-51
2024/02/26 10:11:29;;;;;;;;;32.00;25.00;;;;;20.44;52.31;99715.43;114399;238;161343;-51
2024/02/26 10:14:04;;;;;;;;;31.00;25.00;;;;;19.75;53.31;99717.16;114557;241;41127;-50
2024/02/26 10:16:38;;;;;;;;;25.75;22.00;;;;;19.21;53.89;99716.65;114445;238;161564;-50
2024/02/26 10:19:25;;;;;;;;;29.50;24.25;;;;;18.71;54.31;99718.73;114563;241;39893;-54
2024/02/26 10:22:03;;;;;;;;;24.00;20.00;;;;;18.05;55.27;99720.26;114603;241;39827;-52
2024/02/26 10:24:37;;;;;;;;;29.50;24.00;;;;;17.66;56.12;99720.48;114406;238;162248;-53
2024/02/26 10:27:14;;;;;;;;;34.00;27.00;;;;;17.46;56.83;99721.16;114565;241;40162;-53
2024/02/26 10:29:48;;;;;;;;;24.50;20.75;;;;;17.38;57.36;99722.83;114461;238;161307;-53
2024/02/26 10:32:23;;;;;;;;;34.25;27.25;;;;;16.85;57.41;99724.09;114615;241;40660;-53
2024/02/26 10:35:00;;;;;;;;;33.33;27.67;;;;;16.51;58.59;99720.13;114479;238;161717;-54
2024/02/26 10:37:34;;;;;;;;;36.25;28.00;;;;;16.18;59.18;99720.23;114560;241;39371;-55
2024/02/26 10:40:12;;;;;;;;;28.67;22.67;;;;;16.15;59.63;99718.64;114613;241;41000;-51
2024/02/26 10:42:47;;;;;;;;;34.25;26.75;;;;;16.18;59.94;99723.02;114410;231;164886;-61
2024/02/26 10:45:21;;;;;;;;;31.25;25.00;;;;;16.14;60.38;99729.02;114615;241;39924;-55
2024/02/26 10:47:55;;;;;;;;;34.50;26.00;;;;;16.09;60.42;99724.26;114432;238;162250;-55
2024/02/26 10:50:31;;;;;;;;;33.33;26.67;;;;;16.01;60.69;99722.16;114585;241;40206;-51
2024/02/26 10:53:08;;;;;;;;;29.00;24.00;;;;;15.81;60.87;99723.70;114419;238;161469;-51
2024/02/26 10:55:42;;;;;;;;;29.25;23.50;;;;;15.67;61.44;99724.33;114584;241;39842;-50
2024/02/26 10:58:17;;;;;;;;;27.00;23.00;;;;;15.61;61.94;99724.74;114554;241;39916;-50
2024/02/26 11:00:53;;;;;;;;;32.00;25.00;;;;;15.57;62.06;99724.42;114432;241;161202;-50
2024/02/26 11:03:28;;;;;;;;;28.00;24.00;;;;;15.25;62.71;99718.90;114587;241;39743;-51
2024/02/26 11:06:02;;;;;;;;;31.25;23.75;;;;;15.15;63.26;99724.56;114451;241;161400;-54
2024/02/26 11:08:37;;;;;;;;;26.67;22.33;;;;;14.87;63.30;99733.83;114594;241;40238;-54
2024/02/26 11:11:15;;;;;;;;;28.00;23.00;;;;;14.76;63.74;99729.39;114495;238;161492;-50
2024/02/26 11:13:52;;;;;;;;;29.00;22.75;;;;;14.67;64.02;99728.84;114580;241;40241;-53
2024/02/26 11:16:27;;;;;;;;;25.25;20.50;;;;;14.42;64.41;99729.67;114588;241;39221;-54
2024/02/26 11:19:03;;;;;;;;;25.75;20.00;;;;;14.32;64.87;99734.34;114578;241;39866;-52
2024/02/26 11:21:40;;;;;;;;;27.25;21.25;;;;;14.13;65.29;99735.84;114603;241;39340;-53
2024/02/26 11:24:18;;;;;;;;;29.25;23.00;;;;;14.07;65.60;99736.42;114421;232;185234;-51
2024/02/26 11:26:58;;;;;;;;;25.00;20.00;;;;;14.05;66.06;99738.52;114558;241;39257;-51
2024/02/26 11:29:38;;;;;;;;;22.00;19.00;;;;;13.93;66.32;99737.01;114435;239;161336;-54
2024/02/26 11:32:14;;;;;;;;;21.00;15.50;;;;;13.84;66.66;99739.16;114568;241;39374;-54
2024/02/26 11:34:50;;;;;;;;;26.00;20.00;;;;;13.79;66.76;99740.17;114449;239;161409;-54
2024/02/26 11:37:25;;;;;;;;;26.00;20.50;;;;;13.79;67.15;99739.30;114565;241;39003;-53
2024/02/26 11:40:00;;;;;;;;;25.33;20.00;;;;;13.73;67.59;99740.92;114579;241;40140;-51
2024/02/26 11:42:34;;;;;;;;;21.00;18.00;;;;;13.60;67.61;99743.85;114644;239;161317;-50
2024/02/26 11:45:56;;;;;;;;;19.75;16.50;;;;;13.60;67.68;99739.38;114662;240;40535;-50
2024/02/26 11:48:33;;;;;;;;;20.33;16.00;;;;;13.63;67.91;99738.15;114654;238;161514;-48
2024/02/26 11:51:11;;;;;;;;;19.00;16.00;;;;;13.77;67.83;99731.64;114709;240;40902;-49
2024/02/26 11:53:51;;;;;;;;;20.00;17.00;;;;;13.73;68.02;99733.19;114667;238;161582;-50